Time;durP1;ratioP1;P1;durP2;ratioP2;P2;SDS_P1;SDS_P2;PMS_P1;PMS_P2;Temp;Humidity;BMP_temperature;BMP_pressure;BME280_temperature;BME280_humidity;BME280_pressure;Samples;Min_cycle;Max_cycle;Signal;HPM_P1;HPM_P2
2023/08/30 00:03:24;;;;;;;13.80;11.70;;;18.70;99.60;;;;;;6036484;23;20386;-83
2023/08/30 00:06:20;;;;;;;;;;;;;;;;;;;;;
2023/08/30 00:09:25;;;;;;;12.00;10.80;;;20.00;99.70;;;;;;6037062;23;20481;-81
2023/08/30 00:12:49;;;;;;;;;;;;;;;;;;;;;
2023/08/30 00:19:18;;;;;;;;;;;;;;;;;;;;;
2023/08/30 00:22:20;;;;;;;10.53;9.60;;;19.20;99.80;;;;;;6043052;23;20501;-84
2023/08/30 00:25:38;;;;;;;10.70;9.60;;;18.40;99.90;;;;;;5937038;24;20420;-84
2023/08/30 00:34:00;;;;;;;11.63;10.63;;;19.20;99.80;;;;;;6071513;23;20389;-83
2023/08/30 01:35:51;;;;;;;10.30;9.17;;;18.10;99.40;;;;;;6123594;23;20466;-82
2023/08/30 02:04:33;;;;;;;;;;;;;;;;;;;;;
2023/08/30 02:07:50;;;;;;;10.60;9.43;;;19.50;99.90;;;;;;6088403;23;20405;-84
2023/08/30 02:10:54;;;;;;;10.73;8.50;;;18.60;99.90;;;;;;5923082;24;20466;-84
2023/08/30 02:14:23;;;;;;;;;;;;;;;;;;;;;
2023/08/30 02:21:05;;;;;;;8.97;8.17;;;19.00;99.90;;;;;;6076419;23;20492;-82
2023/08/30 02:44:45;;;;;;;9.77;8.87;;;18.50;99.10;;;;;;6095098;23;20399;-83
2023/08/30 02:48:15;;;;;;;9.60;8.60;;;18.50;99.90;;;;;;6129203;23;20469;-82
2023/08/30 03:07:00;;;;;;;8.27;7.50;;;17.90;99.80;;;;;;6132338;23;20703;-82
2023/08/30 03:37:00;;;;;;;;;;;;;;;;;;;;;
2023/08/30 04:19:30;;;;;;;11.90;8.57;;;17.40;99.90;;;;;;6155433;23;20525;-82
2023/08/30 04:26:59;;;;;;;17.67;11.07;;;17.30;99.90;;;;;;6168979;23;20726;-82
2023/08/30 05:52:40;;;;;;;9.67;7.57;;;17.00;99.90;;;;;;5823781;24;20412;-83
2023/08/30 08:09:55;;;;;;;4.30;3.67;;;27.00;59.40;;;;;;6107551;23;20974;-84
2023/08/30 08:17:41;;;;;;;;;;;;;;;;;;;;;
2023/08/30 09:56:57;;;;;;;;;;;;;;;;;;;;;
2023/08/30 12:54:59;;;;;;;1.60;1.10;;;18.60;99.90;;;;;;6060032;23;20492;-80
2023/08/30 12:58:30;;;;;;;1.10;1.00;;;18.40;99.90;;;;;;6016798;23;20414;-83
2023/08/30 13:21:26;;;;;;;2.30;2.10;;;18.50;99.90;;;;;;6153114;23;20462;-80
2023/08/30 13:24:32;;;;;;;1.93;1.80;;;18.40;99.90;;;;;;6145578;23;20506;-83
2023/08/30 13:57:10;;;;;;;1.90;1.20;;;18.40;99.90;;;;;;6050511;23;20398;-84
2023/08/30 14:03:48;;;;;;;2.07;1.70;;;19.00;99.90;;;;;;5878044;24;20797;-81
2023/08/30 14:07:17;;;;;;;1.33;1.23;;;18.30;99.90;;;;;;5868100;24;20457;-83
2023/08/30 14:10:28;;;;;;;;;;;;;;;;;;;;;
2023/08/30 14:13:34;;;;;;;1.90;1.50;;;18.70;99.90;;;;;;5878586;24;20430;-82
2023/08/30 15:38:16;;;;;;;;;;;;;;;;;;;;;
2023/08/30 15:41:46;;;;;;;;;;;;;;;;;;;;;
2023/08/30 16:51:27;;;;;;;3.13;2.83;;;18.50;99.90;;;;;;6167903;23;20506;-84
2023/08/30 16:59:14;;;;;;;3.53;2.70;;;18.50;99.90;;;;;;6165525;23;20405;-82
2023/08/30 17:02:51;;;;;;;4.80;3.10;;;19.10;99.90;;;;;;6035383;23;20398;-82
2023/08/30 17:06:24;;;;;;;4.00;2.87;;;18.30;99.90;;;;;;6121095;23;20446;-82
2023/08/30 17:12:58;;;;;;;3.07;2.87;;;19.70;99.90;;;;;;6170828;23;20432;-84
2023/08/30 17:20:02;;;;;;;6.60;3.50;;;19.20;99.90;;;;;;6047617;23;20601;-84
2023/08/30 17:27:03;;;;;;;4.33;3.77;;;19.10;99.90;;;;;;5859044;24;20422;-84
2023/08/30 17:34:40;;;;;;;4.53;3.73;;;19.50;99.90;;;;;;5881504;24;20440;-86
2023/08/30 17:38:21;;;;;;;6.00;3.67;;;19.40;99.90;;;;;;5777494;24;20477;-86
2023/08/30 17:45:39;;;;;;;4.60;3.63;;;19.40;99.90;;;;;;5771558;24;20399;-83
2023/08/30 17:49:31;;;;;;;;;;;;;;;;;;;;;
2023/08/30 17:53:13;;;;;;;;;;;;;;;;;;;;;
2023/08/30 18:04:25;;;;;;;3.73;3.20;;;19.10;99.90;;;;;;5880208;24;20427;-82
2023/08/30 18:11:43;;;;;;;3.57;3.23;;;18.20;99.90;;;;;;5881061;24;20479;-84
2023/08/30 18:17:45;;;;;;;3.90;3.60;;;18.30;99.90;;;;;;5865635;24;20446;-83
2023/08/30 18:21:34;;;;;;;;;;;;;;;;;;;;;
2023/08/30 18:29:27;;;;;;;10.00;4.90;;;17.60;99.90;;;;;;5799417;24;20458;-83
2023/08/30 19:11:53;;;;;;;;;;;;;;;;;;;;;
2023/08/30 19:27:10;;;;;;;;;;;;;;;;;;;;;
2023/08/30 19:50:33;;;;;;;;;;;;;;;;;;;;;
2023/08/30 20:09:26;;;;;;;7.53;3.33;;;17.00;99.90;;;;;;5943858;24;20496;-81
2023/08/30 20:12:55;;;;;;;;;;;;;;;;;;;;;
2023/08/30 20:16:43;;;;;;;3.87;2.30;;;17.80;99.90;;;;;;6003354;24;20512;-85
2023/08/30 20:20:32;;;;;;;6.30;2.57;;;16.60;99.90;;;;;;5961516;24;20460;-84
2023/08/30 20:27:37;;;;;;;2.13;1.73;;;17.50;99.90;;;;;;5906751;24;20446;-84
2023/08/30 20:31:13;;;;;;;2.93;2.10;;;17.00;99.90;;;;;;5941781;24;20461;-83
2023/08/30 20:45:00;;;;;;;5.10;2.63;;;16.80;99.90;;;;;;5884520;24;20433;-83
2023/08/30 20:48:51;;;;;;;3.03;2.00;;;16.80;99.90;;;;;;5911196;24;20426;-82
2023/08/30 20:52:23;;;;;;;3.57;2.03;;;16.80;99.90;;;;;;5968145;24;20440;-83
2023/08/30 20:56:11;;;;;;;1.97;1.77;;;16.40;99.90;;;;;;5920205;24;20390;-82
2023/08/30 20:59:23;;;;;;;2.57;1.83;;;16.80;99.90;;;;;;5904527;24;20418;-82
2023/08/30 21:02:54;;;;;;;2.40;1.73;;;16.80;99.90;;;;;;5906068;24;20434;-82
2023/08/30 21:10:57;;;;;;;3.63;2.27;;;16.80;99.90;;;;;;5855691;24;20475;-84
2023/08/30 21:13:52;;;;;;;2.00;1.90;;;16.90;99.90;;;;;;5856239;24;20417;-83
2023/08/30 21:18:10;;;;;;;3.50;2.10;;;15.90;99.90;;;;;;5853464;24;20417;-84
2023/08/30 21:33:05;;;;;;;2.53;1.90;;;16.60;99.90;;;;;;5948125;24;20390;-82
2023/08/30 21:44:18;;;;;;;3.10;2.77;;;16.40;99.90;;;;;;6091467;23;20431;-83
2023/08/30 21:54:38;;;;;;;2.33;1.60;;;16.70;99.90;;;;;;6057735;23;20418;-83
2023/08/30 22:02:29;;;;;;;2.50;1.90;;;16.20;99.90;;;;;;6057985;23;20398;-82
2023/08/30 22:09:10;;;;;;;3.90;2.40;;;17.20;99.90;;;;;;5939457;24;20473;-84
2023/08/30 22:12:50;;;;;;;4.33;2.23;;;16.90;99.90;;;;;;6015081;23;20459;-84
2023/08/30 22:20:18;;;;;;;;;;;;;;;;;;;;;
2023/08/30 22:26:57;;;;;;;3.17;2.47;;;16.90;99.90;;;;;;6155757;23;20406;-82
2023/08/30 22:30:16;;;;;;;4.60;2.50;;;16.70;99.90;;;;;;6157609;23;20481;-82
2023/08/30 22:33:29;;;;;;;3.37;2.77;;;16.20;99.90;;;;;;6150862;23;20381;-82
2023/08/30 22:36:21;;;;;;;6.40;2.50;;;16.70;99.90;;;;;;6151746;23;20407;-81
2023/08/30 22:42:52;;;;;;;4.80;2.63;;;16.40;99.90;;;;;;6129152;23;20449;-83
2023/08/30 22:46:11;;;;;;;2.30;2.10;;;16.50;99.90;;;;;;6147621;23;20433;-83
2023/08/30 22:49:23;;;;;;;3.30;2.30;;;16.30;99.90;;;;;;6134997;23;20579;-83
2023/08/30 22:52:38;;;;;;;4.63;2.43;;;16.30;99.90;;;;;;6048919;23;20398;-82
2023/08/30 22:56:02;;;;;;;5.77;2.30;;;15.90;99.90;;;;;;6051971;23;21041;-84
2023/08/30 22:59:21;;;;;;;4.70;2.30;;;17.00;99.90;;;;;;6142270;23;20996;-81
2023/08/30 23:06:22;;;;;;;2.63;1.90;;;16.60;99.90;;;;;;6013939;23;20419;-81
2023/08/30 23:11:56;;;;;;;4.67;2.67;;;16.50;99.90;;;;;;6163739;23;20822;-81
2023/08/30 23:14:44;;;;;;;2.80;2.50;;;17.40;99.90;;;;;;6163793;23;20502;-82
2023/08/30 23:17:28;;;;;;;4.53;2.80;;;16.20;99.90;;;;;;6161567;23;20762;-83
2023/08/30 23:24:09;;;;;;;4.37;2.87;;;16.10;99.90;;;;;;6101402;23;20420;-82
2023/08/30 23:26:52;;;;;;;3.03;2.57;;;15.90;99.90;;;;;;6038378;23;20722;-82
2023/08/30 23:33:59;;;;;;;8.40;2.90;;;16.10;99.90;;;;;;6096304;23;20417;-82
2023/08/30 23:37:10;;;;;;;3.20;2.40;;;16.90;99.90;;;;;;6015108;23;20905;-81
2023/08/30 23:41:18;;;;;;;4.80;3.27;;;16.40;99.90;;;;;;6074263;23;20474;-83
2023/08/30 23:44:31;;;;;;;4.10;2.90;;;16.60;99.90;;;;;;6052627;23;20409;-84
2023/08/30 23:47:32;;;;;;;;;;;;;;;;;;;;;
2023/08/30 23:50:50;;;;;;;;;;;;;;;;;;;;;
2023/08/30 23:58:03;;;;;;;4.13;2.33;;;16.80;99.90;;;;;;5948316;24;20536;-83
